createdAt,value
2019-01-17T00:09:26.492Z,61.78
2019-01-17T00:12:01.126Z,61.75
2019-01-17T00:14:38.918Z,61.78
2019-01-17T00:17:13.794Z,61.52
2019-01-17T00:19:48.695Z,62.02
2019-01-17T00:39:46.837Z,61.96
2019-01-17T00:42:21.612Z,62.37
2019-01-17T01:19:44.637Z,64.56
2019-01-17T01:22:19.471Z,65.13
2019-01-17T01:24:55.283Z,65.12
2019-01-17T01:28:01.180Z,65.25
2019-01-17T01:47:59.071Z,65.15
2019-01-17T01:50:34.713Z,65.15
2019-01-17T01:53:05.613Z,64.83
2019-01-17T01:55:35.814Z,64.89
2019-01-17T01:58:05.391Z,65.44
2019-01-17T02:00:35.095Z,64.57
2019-01-17T02:03:04.499Z,65.53
2019-01-17T02:05:34.196Z,64.79
2019-01-17T02:08:04.046Z,64.66
2019-01-17T02:10:33.740Z,63.97
2019-01-17T02:13:03.159Z,64.20
2019-01-17T02:15:32.911Z,63.51
2019-01-17T02:18:02.371Z,64.80
2019-01-17T02:20:32.046Z,64.76
2019-01-17T02:40:24.425Z,64.07
2019-01-17T02:42:54.630Z,63.73
2019-01-17T02:45:24.369Z,63.77
2019-01-17T02:47:54.276Z,63.43
2019-01-17T02:50:24.071Z,64.29
2019-01-17T02:52:53.817Z,63.73
2019-01-17T02:55:23.491Z,63.70
2019-01-17T02:57:53.075Z,63.96
2019-01-17T03:00:22.843Z,64.52
2019-01-17T03:02:52.335Z,64.04
2019-01-17T03:05:21.697Z,64.67
2019-01-17T03:07:51.202Z,64.60
2019-01-17T03:10:20.877Z,64.94
2019-01-17T03:12:50.456Z,66.25
2019-01-17T03:15:20.047Z,66.48
2019-01-17T03:17:49.829Z,65.95
2019-01-17T03:37:41.937Z,65.53
2019-01-17T03:40:14.203Z,64.88
2019-01-17T03:42:43.953Z,64.87
2019-01-17T03:45:13.822Z,65.02
2019-01-17T03:47:43.547Z,65.18
2019-01-17T03:50:14.399Z,65.89
2019-01-17T03:52:44.116Z,65.76
2019-01-17T03:55:15.932Z,65.76
2019-01-17T03:57:45.658Z,65.65
2019-01-17T04:17:37.203Z,65.35
2019-01-17T04:20:08.582Z,65.47
2019-01-17T04:22:38.023Z,65.54
2019-01-17T04:25:08.578Z,66.02
2019-01-17T04:27:38.169Z,66.27
2019-01-17T04:30:13.615Z,66.90
2019-01-17T04:32:43.099Z,66.75
2019-01-17T04:35:12.809Z,66.71
2019-01-17T04:37:42.482Z,66.51
2019-01-17T04:40:12.398Z,66.54
2019-01-17T04:42:42.162Z,66.59
2019-01-17T04:45:12.542Z,66.76
2019-01-17T04:47:42.302Z,66.53
2019-01-17T04:50:13.196Z,66.52
2019-01-17T04:52:43.176Z,66.64
2019-01-17T04:55:13.234Z,66.50
2019-01-17T05:20:52.608Z,67.06
2019-01-17T05:23:22.104Z,68.64
2019-01-17T05:25:51.465Z,71.77
2019-01-17T05:28:21.841Z,71.49
2019-01-17T05:30:51.406Z,68.92
2019-01-17T05:33:21.157Z,68.94
2019-01-17T05:35:50.783Z,68.64
2019-01-17T05:38:20.354Z,68.28
2019-01-17T05:40:50.547Z,69.31
2019-01-17T06:00:42.407Z,66.95
2019-01-17T06:03:12.124Z,67.10
2019-01-17T06:05:41.821Z,66.26
2019-01-17T06:08:11.568Z,65.88
2019-01-17T06:10:41.232Z,66.35
2019-01-17T06:30:32.667Z,67.50
2019-01-17T06:33:02.453Z,66.41
2019-01-17T06:35:32.011Z,66.84
2019-01-17T06:38:01.512Z,67.19
2019-01-17T06:40:32.643Z,67.28
2019-01-17T06:43:02.061Z,67.21
2019-01-17T06:45:31.875Z,67.17
2019-01-17T06:48:01.465Z,65.97
2019-01-17T06:50:31.204Z,65.91
2019-01-17T06:53:00.995Z,65.57
2019-01-17T06:55:34.364Z,65.13
2019-01-17T06:58:00.542Z,64.70
2019-01-17T07:00:29.984Z,64.68
2019-01-17T07:02:59.054Z,64.85
2019-01-17T07:05:34.192Z,64.85
2019-01-17T07:08:09.148Z,64.23
2019-01-17T07:10:45.513Z,64.00
2019-01-17T07:13:22.292Z,63.80
2019-01-17T07:15:57.652Z,63.69
2019-01-17T07:36:30.040Z,62.58
2019-01-17T07:38:59.628Z,62.51
2019-01-17T07:41:30.500Z,60.75
2019-01-17T07:44:00.318Z,61.17
2019-01-17T07:46:30.388Z,61.22
2019-01-17T07:49:00.286Z,60.21
2019-01-17T07:51:30.067Z,60.75
2019-01-17T07:53:59.895Z,60.29
2019-01-17T07:56:29.733Z,60.54
2019-01-17T08:16:21.528Z,58.29
2019-01-17T08:18:52.254Z,58.13
2019-01-17T08:21:21.887Z,58.18
2019-01-17T08:23:51.843Z,58.15
2019-01-17T08:26:21.613Z,58.24
2019-01-17T08:46:12.457Z,54.92
2019-01-17T08:48:41.940Z,54.52
2019-01-17T08:51:11.492Z,54.69
2019-01-17T08:53:41.373Z,53.99
2019-01-17T08:56:11.100Z,53.63
2019-01-17T08:58:40.821Z,52.67
2019-01-17T09:01:10.674Z,52.09
2019-01-17T09:03:40.421Z,50.71
2019-01-17T09:06:10.135Z,50.60
2019-01-17T09:08:39.616Z,50.02
2019-01-17T09:11:09.443Z,49.52
2019-01-17T09:13:39.072Z,49.26
2019-01-17T09:16:08.809Z,49.41
2019-01-17T09:18:38.496Z,49.44
2019-01-17T09:21:08.000Z,47.83
2019-01-17T09:23:37.711Z,46.87
2019-01-17T09:26:07.830Z,47.03
2019-01-17T09:28:37.015Z,47.25
2019-01-17T09:31:06.863Z,46.56
2019-01-17T09:50:57.745Z,44.33
2019-01-17T10:10:49.503Z,42.29
2019-01-17T10:13:19.236Z,41.43
2019-01-17T10:16:10.849Z,42.27
2019-01-17T10:18:51.904Z,41.88
2019-01-17T10:21:45.027Z,42.87
2019-01-17T10:24:26.112Z,42.94
2019-01-17T10:27:08.930Z,42.70
2019-01-17T10:29:45.687Z,42.93
2019-01-17T10:32:56.100Z,41.29
2019-01-17T10:35:54.708Z,42.38
2019-01-17T10:39:36.936Z,41.31
2019-01-17T10:42:17.788Z,41.05
2019-01-17T10:46:00.519Z,39.75
2019-01-17T10:48:48.268Z,39.58
2019-01-17T10:51:42.868Z,39.99
2019-01-17T10:54:22.096Z,41.17
2019-01-17T10:57:09.424Z,41.18
2019-01-17T11:02:29.711Z,40.66
2019-01-17T11:06:14.349Z,41.16
2019-01-17T11:09:59.875Z,41.52
2019-01-17T11:30:08.532Z,40.65
2019-01-17T11:32:51.833Z,39.65
2019-01-17T11:52:56.482Z,30.88
2019-01-17T11:55:44.801Z,28.28
2019-01-17T11:58:27.027Z,28.09
2019-01-17T12:01:11.639Z,27.46
2019-01-17T12:03:52.449Z,26.19
2019-01-17T12:06:22.171Z,26.39
2019-01-17T12:08:52.395Z,25.62
2019-01-17T12:11:22.167Z,25.11
2019-01-17T12:13:51.851Z,24.67
2019-01-17T12:16:21.545Z,24.07
2019-01-17T12:18:51.074Z,23.10
2019-01-17T12:21:20.949Z,22.01
2019-01-17T12:23:50.484Z,21.65
2019-01-17T12:26:20.161Z,20.81
2019-01-17T12:28:49.823Z,20.23
2019-01-17T12:31:19.585Z,20.04
2019-01-17T12:33:49.461Z,20.30
2019-01-17T12:36:19.143Z,19.90
2019-01-17T12:56:11.328Z,18.26
2019-01-17T12:58:40.599Z,18.25
2019-01-17T13:01:16.123Z,19.37
2019-01-17T13:03:50.984Z,18.93
2019-01-17T13:06:26.178Z,18.68
2019-01-17T13:09:01.261Z,19.19
2019-01-17T13:11:36.605Z,18.96
2019-01-17T13:14:12.128Z,19.05
2019-01-17T13:16:47.026Z,18.51
2019-01-17T13:37:17.947Z,22.40
2019-01-17T13:39:47.247Z,23.15
2019-01-17T13:42:20.782Z,22.78
2019-01-17T13:44:46.259Z,23.08
2019-01-17T13:47:15.882Z,24.18
2019-01-17T13:49:45.425Z,23.25
2019-01-17T13:52:15.389Z,25.34
2019-01-17T13:54:44.880Z,27.37
2019-01-17T13:57:14.765Z,26.94
2019-01-17T13:59:44.573Z,26.07
2019-01-17T14:02:14.191Z,27.97
2019-01-17T14:04:43.836Z,28.57
2019-01-17T14:24:35.538Z,30.43
2019-01-17T14:27:05.074Z,31.11
2019-01-17T14:29:34.766Z,30.88
2019-01-17T14:49:27.233Z,37.88
2019-01-17T14:51:56.936Z,39.53
2019-01-17T14:54:26.753Z,39.65
2019-01-17T14:56:56.552Z,40.33
2019-01-17T15:16:48.372Z,43.25
2019-01-17T15:19:17.816Z,43.53
2019-01-17T15:21:47.145Z,43.71
2019-01-17T15:24:16.871Z,44.22
2019-01-17T15:26:46.480Z,44.73
2019-01-17T15:29:16.141Z,44.83
2019-01-17T15:31:45.714Z,45.13
2019-01-17T15:34:15.604Z,45.00
2019-01-17T15:36:45.170Z,44.39
2019-01-17T15:39:14.716Z,43.92
2019-01-17T15:41:44.581Z,44.86
2019-01-17T15:44:14.411Z,44.89
2019-01-17T15:46:43.798Z,44.95
2019-01-17T15:49:13.134Z,44.91
2019-01-17T15:51:42.813Z,45.71
2019-01-17T15:54:12.212Z,45.69
2019-01-17T15:56:41.864Z,46.74
2019-01-17T15:59:11.430Z,46.44
2019-01-17T16:01:41.011Z,46.92
2019-01-17T16:04:10.520Z,46.59
2019-01-17T16:06:40.327Z,48.33
2019-01-17T16:09:10.526Z,48.63
2019-01-17T16:11:40.262Z,48.67
2019-01-17T16:14:09.803Z,49.57
2019-01-17T16:16:39.569Z,50.82
2019-01-17T16:19:08.985Z,51.39
2019-01-17T16:21:38.513Z,52.31
2019-01-17T16:24:08.263Z,52.65
2019-01-17T16:26:38.080Z,52.33
2019-01-17T16:29:07.887Z,52.10
2019-01-17T16:31:38.042Z,52.00
2019-01-17T16:34:08.577Z,52.37
2019-01-17T16:36:38.874Z,53.28
2019-01-17T16:39:09.198Z,53.16
2019-01-17T16:41:39.743Z,52.24
2019-01-17T16:44:09.658Z,52.50
2019-01-17T16:46:39.878Z,52.27
2019-01-17T16:49:10.197Z,53.62
2019-01-17T16:51:40.089Z,53.39
2019-01-17T16:54:09.914Z,52.91
2019-01-17T16:56:40.290Z,52.81
2019-01-17T16:59:10.055Z,53.01
2019-01-17T17:01:40.632Z,53.37
2019-01-17T17:04:12.533Z,53.57
2019-01-17T17:06:42.320Z,52.87
2019-01-17T17:09:12.869Z,53.30
2019-01-17T17:11:42.945Z,53.10
2019-01-17T17:14:13.135Z,52.67
2019-01-17T17:16:43.069Z,52.75
2019-01-17T17:19:12.634Z,53.41
2019-01-17T17:21:42.245Z,53.43
2019-01-17T17:24:11.987Z,54.02
2019-01-17T17:26:41.726Z,55.21
2019-01-17T17:29:11.620Z,55.50
2019-01-17T17:31:41.227Z,56.23
2019-01-17T17:34:11.339Z,56.96
2019-01-17T17:36:40.798Z,57.28
2019-01-17T17:39:10.609Z,57.40
2019-01-17T17:41:40.196Z,57.87
2019-01-17T17:44:09.918Z,57.94
2019-01-17T17:46:39.571Z,58.05
2019-01-17T17:49:10.117Z,57.77
2019-01-17T17:51:39.846Z,57.79
2019-01-17T17:54:10.355Z,58.80
2019-01-17T17:56:39.841Z,60.08
2019-01-17T17:59:09.607Z,60.12
2019-01-17T18:01:41.638Z,60.80
2019-01-17T18:04:11.467Z,60.75
2019-01-17T18:06:41.311Z,59.43
2019-01-17T18:09:11.409Z,59.77
2019-01-17T18:11:41.373Z,60.62
2019-01-17T18:14:11.079Z,61.04
2019-01-17T18:16:40.956Z,61.28
2019-01-17T18:19:10.765Z,61.86
2019-01-17T18:21:40.474Z,61.60
2019-01-17T18:24:10.311Z,61.74
2019-01-17T18:26:39.619Z,60.91
2019-01-17T18:29:09.112Z,61.33
2019-01-17T18:31:38.939Z,62.04
2019-01-17T18:34:09.061Z,61.18
2019-01-17T18:36:38.820Z,60.55
2019-01-17T18:39:12.392Z,60.93
2019-01-17T18:41:42.098Z,60.47
2019-01-17T18:44:11.863Z,59.82
2019-01-17T18:46:41.547Z,59.57
2019-01-17T18:49:11.203Z,59.99
2019-01-17T18:51:40.856Z,59.66
2019-01-17T18:54:10.578Z,60.00
2019-01-17T18:56:40.124Z,59.68
2019-01-17T18:59:09.747Z,60.43
2019-01-17T19:01:39.544Z,61.11
2019-01-17T19:04:09.908Z,60.72
2019-01-17T19:06:39.858Z,61.12
2019-01-17T19:09:09.593Z,60.57
2019-01-17T19:11:39.566Z,60.08
2019-01-17T19:14:09.524Z,60.38
2019-01-17T19:16:38.990Z,60.88
2019-01-17T19:19:08.708Z,60.14
2019-01-17T19:21:38.218Z,61.27
2019-01-17T19:24:08.044Z,61.02
2019-01-17T19:26:37.863Z,61.08
2019-01-17T19:29:07.336Z,61.39
2019-01-17T19:31:37.138Z,60.56
2019-01-17T19:34:06.719Z,60.31
2019-01-17T19:36:37.436Z,60.69
2019-01-17T19:39:11.335Z,61.08
2019-01-17T19:41:41.432Z,61.17
2019-01-17T19:44:11.045Z,61.04
2019-01-17T19:46:40.698Z,61.21
2019-01-17T19:49:10.471Z,61.74
2019-01-17T19:51:40.151Z,62.18
2019-01-17T19:54:09.522Z,61.31
2019-01-17T19:56:39.232Z,61.27
2019-01-17T19:59:08.866Z,60.72
2019-01-17T20:01:38.367Z,61.84
2019-01-17T20:04:08.302Z,61.33
2019-01-17T20:06:37.665Z,62.23
2019-01-17T20:09:08.668Z,62.62
2019-01-17T20:11:38.473Z,62.25
2019-01-17T20:14:07.931Z,62.87
2019-01-17T20:16:37.643Z,63.47
2019-01-17T20:19:07.044Z,63.06
2019-01-17T20:21:36.771Z,62.46
2019-01-17T20:24:06.616Z,62.61
2019-01-17T20:26:36.111Z,62.00
2019-01-17T20:29:05.804Z,62.62
2019-01-17T20:31:35.623Z,62.70
2019-01-17T20:34:05.206Z,62.33
2019-01-17T20:36:34.836Z,62.66
2019-01-17T20:39:04.899Z,61.83
2019-01-17T20:41:34.348Z,61.83
2019-01-17T20:44:03.833Z,62.06
2019-01-17T20:46:33.342Z,62.06
2019-01-17T20:49:02.993Z,61.95
2019-01-17T20:51:32.557Z,62.34
2019-01-17T20:54:02.253Z,63.38
2019-01-17T20:56:32.001Z,62.87
2019-01-17T20:59:01.573Z,62.88
2019-01-17T21:02:00.663Z,63.12
2019-01-17T21:04:30.116Z,62.55
2019-01-17T21:07:05.506Z,62.69
2019-01-17T21:09:29.615Z,62.77
2019-01-17T21:11:59.065Z,62.47
2019-01-17T21:14:28.794Z,62.29
2019-01-17T21:16:58.334Z,62.77
2019-01-17T21:19:27.968Z,63.39
2019-01-17T21:21:57.337Z,63.39
2019-01-17T21:24:26.904Z,63.73
2019-01-17T21:26:56.377Z,63.33
2019-01-17T21:29:26.086Z,63.04
2019-01-17T21:31:55.679Z,62.66
2019-01-17T21:34:25.456Z,63.20
2019-01-17T21:36:55.075Z,63.54
2019-01-17T21:39:25.024Z,64.35
2019-01-17T21:41:54.521Z,64.26
2019-01-17T21:44:24.043Z,63.92
2019-01-17T21:46:54.316Z,64.07
2019-01-17T21:49:23.979Z,63.68
2019-01-17T21:51:53.566Z,64.41
2019-01-17T21:54:23.227Z,64.94
2019-01-17T21:56:52.847Z,65.73
2019-01-17T21:59:22.445Z,66.22
2019-01-17T22:01:51.850Z,65.61
2019-01-17T22:04:21.547Z,65.25
2019-01-17T22:06:51.269Z,64.69
2019-01-17T22:09:20.874Z,64.77
2019-01-17T22:11:50.378Z,66.13
2019-01-17T22:14:19.862Z,64.71
2019-01-17T22:16:49.582Z,64.79
2019-01-17T22:19:19.068Z,63.79
2019-01-17T22:21:48.672Z,64.43
2019-01-17T22:24:18.467Z,63.86
2019-01-17T22:26:47.995Z,64.26
2019-01-17T22:29:17.781Z,64.49
2019-01-17T22:31:47.464Z,64.63
2019-01-17T22:34:17.137Z,64.19
2019-01-17T22:36:46.536Z,64.80
2019-01-17T22:39:16.429Z,64.64
2019-01-17T22:41:46.165Z,64.94
2019-01-17T22:44:15.750Z,64.73
2019-01-17T22:46:45.528Z,65.39
2019-01-17T22:49:15.167Z,65.18
2019-01-17T22:51:44.679Z,65.54
2019-01-17T22:54:14.126Z,65.05
2019-01-17T22:56:43.634Z,65.40
2019-01-17T22:59:13.334Z,64.68
2019-01-17T23:01:42.975Z,64.76
2019-01-17T23:04:12.432Z,65.32
2019-01-17T23:06:41.916Z,65.33
2019-01-17T23:09:11.471Z,65.29
2019-01-17T23:11:41.152Z,66.46
2019-01-17T23:14:10.684Z,65.74
2019-01-17T23:16:40.411Z,65.70
2019-01-17T23:19:10.098Z,66.26
2019-01-17T23:21:39.691Z,66.05
2019-01-17T23:24:09.327Z,66.62
2019-01-17T23:26:39.047Z,66.55
2019-01-17T23:29:08.729Z,66.64
2019-01-17T23:31:38.370Z,66.12
2019-01-17T23:34:07.914Z,66.48
2019-01-17T23:36:37.331Z,67.36
2019-01-17T23:39:08.140Z,67.41
2019-01-17T23:41:37.778Z,67.23
2019-01-17T23:44:07.286Z,67.05
2019-01-17T23:46:37.023Z,67.16
2019-01-17T23:49:06.652Z,67.07
2019-01-17T23:51:36.359Z,66.74
2019-01-17T23:54:06.010Z,66.60
2019-01-17T23:56:35.723Z,66.45
2019-01-17T23:59:05.336Z,66.37
